createdAt,value
2023-04-07T00:02:01.852Z,101573.09
2023-04-07T00:04:28.736Z,101577.44
2023-04-07T00:06:55.512Z,101578.44
2023-04-07T00:09:22.084Z,101574.91
2023-04-07T00:11:48.752Z,101578.59
2023-04-07T00:14:15.409Z,101581.28
2023-04-07T00:16:41.944Z,101579.53
2023-04-07T00:19:08.491Z,101584.91
2023-04-07T00:21:35.038Z,101584.91
2023-04-07T00:24:01.593Z,101583.22
2023-04-07T00:26:31.463Z,101580.53
2023-04-07T00:28:59.005Z,101581.53
2023-04-07T00:31:25.976Z,101577.00
2023-04-07T00:33:52.926Z,101579.69
2023-04-07T00:36:19.848Z,101575.31
2023-04-07T00:38:46.506Z,101576.31
2023-04-07T00:41:13.270Z,101571.78
2023-04-07T00:43:39.889Z,101574.47
2023-04-07T00:46:06.566Z,101583.47
2023-04-07T00:48:33.185Z,101578.13
2023-04-07T00:50:59.740Z,101578.13
2023-04-07T00:53:26.357Z,101587.16
2023-04-07T00:55:53.053Z,101581.78
2023-04-07T00:58:19.661Z,101576.56
2023-04-07T01:00:51.579Z,101585.47
2023-04-07T01:03:28.794Z,101579.38
2023-04-07T01:06:01.103Z,101582.03
2023-04-07T01:08:42.526Z,101590.22
2023-04-07T01:11:20.023Z,101585.72
2023-04-07T01:13:49.975Z,101591.06
2023-04-07T01:16:39.600Z,101590.38
2023-04-07T01:19:37.248Z,101583.28
2023-04-07T01:22:14.103Z,101582.34
2023-04-07T01:25:11.378Z,101582.34
2023-04-07T01:27:49.613Z,101585.00
2023-04-07T01:30:17.488Z,101587.69
2023-04-07T01:32:46.954Z,101586.81
2023-04-07T01:35:14.895Z,101588.66
2023-04-07T01:37:42.977Z,101588.66
2023-04-07T01:40:10.371Z,101587.81
2023-04-07T01:42:39.458Z,101587.81
2023-04-07T01:45:07.787Z,101588.81
2023-04-07T01:47:37.470Z,101588.94
2023-04-07T01:50:05.862Z,101588.81
2023-04-07T01:52:36.568Z,101594.31
2023-04-07T01:55:04.986Z,101597.84
2023-04-07T01:57:31.634Z,101596.97
2023-04-07T01:59:58.165Z,101596.97
2023-04-07T02:02:25.080Z,101596.97
2023-04-07T02:04:54.529Z,101594.31
2023-04-07T02:07:29.150Z,101595.25
2023-04-07T02:10:02.529Z,101596.25
2023-04-07T02:12:30.345Z,101599.78
2023-04-07T02:14:58.821Z,101597.09
2023-04-07T02:17:28.149Z,101601.63
2023-04-07T02:19:58.003Z,101603.44
2023-04-07T02:22:25.640Z,101606.97
2023-04-07T02:24:52.202Z,101604.44
2023-04-07T02:27:19.984Z,101600.91
2023-04-07T02:29:46.560Z,101602.59
2023-04-07T02:32:13.116Z,101594.66
2023-04-07T02:34:39.661Z,101602.72
2023-04-07T02:37:06.182Z,101589.47
2023-04-07T02:39:32.713Z,101600.19
2023-04-07T02:41:59.260Z,101592.97
2023-04-07T02:44:25.810Z,101590.31
2023-04-07T02:46:52.328Z,101595.66
2023-04-07T02:49:18.838Z,101594.81
2023-04-07T02:51:46.941Z,101601.03
2023-04-07T02:54:13.485Z,101602.00
2023-04-07T02:56:40.037Z,101603.84
2023-04-07T02:59:07.215Z,101608.22
2023-04-07T03:01:34.996Z,101594.97
2023-04-07T03:04:01.863Z,101599.47
2023-04-07T03:06:28.702Z,101605.69
2023-04-07T03:08:55.178Z,101605.69
2023-04-07T03:11:21.721Z,101596.78
2023-04-07T03:13:48.228Z,101600.31
2023-04-07T03:16:14.728Z,101597.75
2023-04-07T03:18:41.368Z,101600.31
2023-04-07T03:21:08.130Z,101601.28
2023-04-07T03:23:34.700Z,101603.13
2023-04-07T03:26:01.218Z,101601.28
2023-04-07T03:28:27.708Z,101600.44
2023-04-07T03:30:54.319Z,101603.13
2023-04-07T03:33:21.018Z,101601.41
2023-04-07T03:35:47.544Z,101596.06
2023-04-07T03:38:14.097Z,101601.41
2023-04-07T03:40:40.760Z,101592.53
2023-04-07T03:43:12.494Z,101603.25
2023-04-07T03:45:39.109Z,101599.72
2023-04-07T03:48:05.940Z,101596.19
2023-04-07T03:50:32.541Z,101601.56
2023-04-07T03:52:59.014Z,101595.34
2023-04-07T03:55:26.050Z,101595.34
2023-04-07T03:57:52.603Z,101600.72
2023-04-07T04:00:19.409Z,101605.19
2023-04-07T04:02:46.058Z,101607.03
2023-04-07T04:05:12.668Z,101613.25
2023-04-07T04:07:39.184Z,101619.59
2023-04-07T04:10:06.468Z,101621.41
2023-04-07T04:12:33.190Z,101620.44
2023-04-07T04:14:59.701Z,101612.41
2023-04-07T04:17:27.054Z,101617.91
2023-04-07T04:19:54.460Z,101618.75
2023-04-07T04:22:21.033Z,101625.94
2023-04-07T04:24:47.497Z,101622.41
2023-04-07T04:27:14.000Z,101629.59
2023-04-07T04:29:40.551Z,101634.13
2023-04-07T04:32:07.106Z,101632.41
2023-04-07T04:34:34.325Z,101638.59
2023-04-07T04:37:01.149Z,101632.41
2023-04-07T04:39:27.694Z,101637.75
2023-04-07T04:41:54.210Z,101635.22
2023-04-07T04:44:20.835Z,101642.25
2023-04-07T04:46:47.368Z,101641.41
2023-04-07T04:49:14.679Z,101635.22
2023-04-07T04:51:41.917Z,101644.09
2023-04-07T04:54:08.645Z,101653.13
2023-04-07T04:56:35.221Z,101650.44
2023-04-07T04:59:02.435Z,101656.66
2023-04-07T05:01:29.776Z,101654.09
2023-04-07T05:03:58.056Z,101652.28
2023-04-07T05:06:25.122Z,101661.16
2023-04-07T05:08:51.635Z,101665.53
2023-04-07T05:11:18.184Z,101656.66
2023-04-07T05:13:44.818Z,101658.47
2023-04-07T05:16:11.418Z,101661.16
2023-04-07T05:18:37.933Z,101662.00
2023-04-07T05:21:04.465Z,101659.34
2023-04-07T05:23:31.248Z,101671.03
2023-04-07T05:25:57.807Z,101661.16
2023-04-07T05:28:25.329Z,101664.84
2023-04-07T05:30:51.864Z,101665.69
2023-04-07T05:33:18.399Z,101671.88
2023-04-07T05:35:45.969Z,101663.09
2023-04-07T05:38:13.289Z,101664.94
2023-04-07T05:40:40.266Z,101673.72
2023-04-07T05:43:06.771Z,101675.56
2023-04-07T05:45:33.295Z,101682.72
2023-04-07T05:47:59.941Z,101680.91
2023-04-07T05:50:26.639Z,101672.88
2023-04-07T05:52:53.170Z,101687.97
2023-04-07T05:55:19.729Z,101685.38
2023-04-07T05:57:46.301Z,101688.94
2023-04-07T06:00:13.638Z,101688.22
2023-04-07T06:02:40.406Z,101691.63
2023-04-07T06:05:07.560Z,101689.91
2023-04-07T06:07:34.131Z,101686.38
2023-04-07T06:10:00.651Z,101695.25
2023-04-07T06:12:27.191Z,101688.06
2023-04-07T06:14:55.643Z,101695.25
2023-04-07T06:17:23.175Z,101696.97
2023-04-07T06:19:49.703Z,101688.94
2023-04-07T06:22:16.442Z,101695.16
2023-04-07T06:24:42.996Z,101701.34
2023-04-07T06:27:09.560Z,101700.50
2023-04-07T06:29:36.637Z,101700.50
2023-04-07T06:32:03.219Z,101698.69
2023-04-07T06:34:29.784Z,101703.19
2023-04-07T06:36:58.081Z,101699.53
2023-04-07T06:39:27.521Z,101704.03
2023-04-07T06:41:54.046Z,101711.09
2023-04-07T06:44:20.623Z,101714.63
2023-04-07T06:46:49.418Z,101711.94
2023-04-07T06:49:16.522Z,101719.97
2023-04-07T06:51:43.092Z,101719.13
2023-04-07T06:54:12.934Z,101719.13
2023-04-07T06:56:40.837Z,101722.66
2023-04-07T06:59:07.379Z,101724.47
2023-04-07T07:01:34.347Z,101729.72
2023-04-07T07:04:01.359Z,101735.19
2023-04-07T07:06:28.221Z,101736.91
2023-04-07T07:08:54.913Z,101740.44
2023-04-07T07:11:21.437Z,101736.78
2023-04-07T07:13:48.150Z,101736.78
2023-04-07T07:16:14.881Z,101749.19
2023-04-07T07:18:41.435Z,101742.00
2023-04-07T07:21:08.273Z,101749.19
2023-04-07T07:23:34.848Z,101750.06
2023-04-07T07:26:01.370Z,101756.25
2023-04-07T07:28:29.204Z,101757.09
2023-04-07T07:30:56.310Z,101759.78
2023-04-07T07:33:22.897Z,101761.50
2023-04-07T07:35:49.437Z,101759.78
2023-04-07T07:38:16.098Z,101766.88
2023-04-07T07:40:42.647Z,101773.19
2023-04-07T07:43:09.201Z,101772.34
2023-04-07T07:45:35.702Z,101771.34
2023-04-07T07:48:02.229Z,101774.03
2023-04-07T07:50:29.955Z,101781.97
2023-04-07T07:52:56.520Z,101787.31
2023-04-07T07:55:23.058Z,101786.34
2023-04-07T07:57:49.607Z,101786.34
2023-04-07T08:00:16.472Z,101784.50
2023-04-07T08:02:43.053Z,101783.66
2023-04-07T08:05:09.922Z,101791.56
2023-04-07T08:07:36.643Z,101791.44
2023-04-07T08:10:03.337Z,101802.88
2023-04-07T08:12:29.908Z,101805.56
2023-04-07T08:14:56.390Z,101799.25
2023-04-07T08:17:22.962Z,101808.00
2023-04-07T08:19:49.596Z,101804.47
2023-04-07T08:22:16.199Z,101797.28
2023-04-07T08:24:42.730Z,101808.84
2023-04-07T08:27:09.266Z,101809.69
2023-04-07T08:29:35.898Z,101814.09
2023-04-07T08:32:02.489Z,101820.16
2023-04-07T08:34:29.123Z,101819.31
2023-04-07T08:36:55.768Z,101819.31
2023-04-07T08:39:22.963Z,101816.50
2023-04-07T08:41:50.718Z,101823.84
2023-04-07T08:44:21.144Z,101817.34
2023-04-07T08:46:49.253Z,101820.91
2023-04-07T08:49:18.025Z,101820.78
2023-04-07T08:51:48.681Z,101827.97
2023-04-07T08:54:19.089Z,101828.94
2023-04-07T08:56:46.032Z,101828.81
2023-04-07T08:59:15.313Z,101834.31
2023-04-07T09:01:42.231Z,101836.00
2023-04-07T09:04:10.259Z,101836.00
2023-04-07T09:06:38.030Z,101829.78
2023-04-07T09:09:08.694Z,101841.38
2023-04-07T09:11:37.473Z,101843.19
2023-04-07T09:14:04.220Z,101841.38
2023-04-07T09:16:33.950Z,101841.38
2023-04-07T09:19:00.739Z,101837.69
2023-04-07T09:21:27.407Z,101836.72
2023-04-07T09:23:54.149Z,101843.91
2023-04-07T09:26:24.807Z,101840.25
2023-04-07T09:28:55.753Z,101845.50
2023-04-07T09:31:26.206Z,101848.19
2023-04-07T09:33:53.266Z,101844.66
2023-04-07T09:36:19.858Z,101850.00
2023-04-07T09:38:46.489Z,101850.00
2023-04-07T09:41:16.405Z,101855.38
2023-04-07T09:43:45.319Z,101850.97
2023-04-07T09:46:13.454Z,101854.38
2023-04-07T09:48:40.607Z,101847.31
2023-04-07T09:51:11.684Z,101853.66
2023-04-07T09:53:50.038Z,101850.97
2023-04-07T09:56:24.723Z,101853.53
2023-04-07T09:58:54.152Z,101853.53
2023-04-07T10:01:21.884Z,101858.91
2023-04-07T10:03:49.270Z,101855.22
2023-04-07T10:06:16.721Z,101857.91
2023-04-07T10:08:44.123Z,101862.28
2023-04-07T10:11:10.988Z,101864.97
2023-04-07T10:13:40.050Z,101868.53
2023-04-07T10:16:08.111Z,101869.38
2023-04-07T10:18:36.902Z,101859.59
2023-04-07T10:21:07.854Z,101866.81
2023-04-07T10:23:53.704Z,101875.69
2023-04-07T10:26:23.914Z,101875.69
2023-04-07T10:28:53.660Z,101881.06
2023-04-07T10:31:20.817Z,101877.41
2023-04-07T10:33:49.968Z,101880.94
2023-04-07T10:36:21.649Z,101876.56
2023-04-07T10:39:07.047Z,101881.81
2023-04-07T10:41:41.498Z,101888.00
2023-04-07T10:44:09.897Z,101889.72
2023-04-07T10:46:45.695Z,101891.44
2023-04-07T10:49:13.444Z,101888.63
2023-04-07T10:51:40.541Z,101893.00
2023-04-07T10:54:26.317Z,101883.13
2023-04-07T10:57:03.390Z,101894.69
2023-04-07T10:59:30.568Z,101891.06
2023-04-07T11:02:12.398Z,101896.41
2023-04-07T11:04:40.786Z,101892.78
2023-04-07T11:07:07.347Z,101894.59
2023-04-07T11:09:34.358Z,101902.63
2023-04-07T11:12:00.956Z,101900.94
2023-04-07T11:14:28.799Z,101902.63
2023-04-07T11:16:55.563Z,101906.19
2023-04-07T11:19:22.507Z,101903.13
2023-04-07T11:21:49.254Z,101902.50
2023-04-07T11:24:40.585Z,101904.28
2023-04-07T11:27:12.836Z,101905.34
2023-04-07T11:29:39.791Z,101905.69
2023-04-07T11:32:06.482Z,101903.47
2023-04-07T11:34:34.851Z,101907.59
2023-04-07T11:37:27.210Z,101911.16
2023-04-07T11:39:54.699Z,101906.75
2023-04-07T11:42:35.415Z,101917.00
2023-04-07T11:45:02.355Z,101919.97
2023-04-07T11:47:40.562Z,101912.28
2023-04-07T11:50:07.645Z,101914.13
2023-04-07T11:52:48.529Z,101917.06
2023-04-07T11:55:24.410Z,101920.72
2023-04-07T11:57:51.797Z,101920.72
2023-04-07T12:00:19.869Z,101918.03
2023-04-07T12:02:47.198Z,101921.69
2023-04-07T12:05:14.001Z,101923.53
2023-04-07T12:07:41.987Z,101932.44
2023-04-07T12:10:21.668Z,101930.59
2023-04-07T12:12:48.686Z,101933.28
2023-04-07T12:15:15.476Z,101939.63
2023-04-07T12:17:48.796Z,101942.56
2023-04-07T12:20:15.976Z,101943.41
2023-04-07T12:22:42.550Z,101948.06
2023-04-07T12:25:09.234Z,101944.53
2023-04-07T12:27:42.612Z,101942.09
2023-04-07T12:30:11.283Z,101951.13
2023-04-07T12:32:38.150Z,101957.44
2023-04-07T12:35:06.224Z,101951.22
2023-04-07T12:37:33.140Z,101955.88
2023-04-07T12:40:00.472Z,101956.00
2023-04-07T12:42:27.570Z,101965.03
2023-04-07T12:44:54.092Z,101962.47
2023-04-07T12:47:20.870Z,101966.25
2023-04-07T12:49:49.294Z,101970.78
2023-04-07T12:52:16.839Z,101971.75
2023-04-07T12:54:44.458Z,101971.00
2023-04-07T12:57:11.490Z,101977.34
2023-04-07T12:59:38.261Z,101978.34
2023-04-07T13:02:05.163Z,101986.50
2023-04-07T13:04:32.251Z,101977.59
2023-04-07T13:06:59.604Z,101985.66
2023-04-07T13:09:26.339Z,101985.75
2023-04-07T13:11:52.885Z,101987.59
2023-04-07T13:14:19.456Z,101993.03
2023-04-07T13:16:46.308Z,101985.00
2023-04-07T13:19:13.099Z,101994.78
2023-04-07T13:24:09.132Z,101986.84
2023-04-07T13:26:35.662Z,101986.84
2023-04-07T13:29:02.236Z,101994.88
2023-04-07T13:31:28.791Z,101993.03
2023-04-07T13:33:55.563Z,101992.19
2023-04-07T13:36:23.446Z,101988.53
2023-04-07T13:38:50.222Z,101990.25
2023-04-07T13:41:16.907Z,101992.00
2023-04-07T13:43:43.412Z,101991.84
2023-04-07T13:46:27.366Z,101991.84
2023-04-07T13:48:54.465Z,101990.91
2023-04-07T13:51:21.548Z,101996.28
2023-04-07T13:53:48.360Z,101990.03
2023-04-07T13:56:15.412Z,101986.50
2023-04-07T13:58:42.252Z,101995.38
2023-04-07T14:01:09.131Z,101988.31
2023-04-07T14:03:35.793Z,101994.53
2023-04-07T14:06:02.739Z,101995.38
2023-04-07T14:08:29.668Z,101996.28
2023-04-07T14:10:56.256Z,102001.63
2023-04-07T14:13:23.075Z,102009.69
2023-04-07T14:15:50.108Z,102001.63
2023-04-07T14:18:17.481Z,102003.44
2023-04-07T14:20:44.596Z,102001.50
2023-04-07T14:23:11.656Z,102005.88
2023-04-07T14:25:38.316Z,102007.56
2023-04-07T14:28:04.849Z,102013.69
2023-04-07T14:30:31.615Z,102004.78
2023-04-07T14:32:58.178Z,102011.84
2023-04-07T14:35:24.739Z,102007.34
2023-04-07T14:37:52.473Z,102009.91
2023-04-07T14:40:21.223Z,102010.75
2023-04-07T14:42:48.979Z,102003.56
2023-04-07T14:45:15.741Z,102007.94
2023-04-07T14:47:42.440Z,102018.44
2023-04-07T14:50:09.325Z,102011.22
2023-04-07T14:52:35.960Z,102011.94
2023-04-07T14:55:02.710Z,102012.44
2023-04-07T14:57:29.319Z,102019.13
2023-04-07T14:59:55.882Z,102021.06
2023-04-07T15:02:22.654Z,102017.25
2023-04-07T15:04:49.433Z,102019.75
2023-04-07T15:07:16.021Z,102025.69
2023-04-07T15:09:42.585Z,102025.38
2023-04-07T15:12:09.138Z,102020.72
2023-04-07T15:14:35.827Z,102023.06
2023-04-07T15:17:02.444Z,102029.25
2023-04-07T15:19:29.033Z,102021.97
2023-04-07T15:21:55.572Z,102027.25
2023-04-07T15:24:22.248Z,102032.41
2023-04-07T15:26:49.376Z,102028.91
2023-04-07T15:29:15.926Z,102031.69
2023-04-07T15:31:42.459Z,102031.88
2023-04-07T15:34:09.059Z,102035.44
2023-04-07T15:36:35.640Z,102032.91
2023-04-07T15:39:06.493Z,102029.53
2023-04-07T15:41:33.923Z,102033.53
2023-04-07T15:44:01.092Z,102037.50
2023-04-07T15:46:28.241Z,102037.09
2023-04-07T15:48:55.056Z,102038.34
2023-04-07T15:51:21.688Z,102039.50
2023-04-07T15:53:48.516Z,102037.28
2023-04-07T15:56:15.327Z,102040.25
2023-04-07T15:58:41.910Z,102039.69
2023-04-07T16:01:08.596Z,102047.22
2023-04-07T16:03:35.327Z,102039.56
2023-04-07T16:06:01.990Z,102048.94
2023-04-07T16:08:28.566Z,102036.75
2023-04-07T16:10:55.332Z,102046.25
2023-04-07T16:13:21.967Z,102047.66
2023-04-07T16:15:48.549Z,102046.38
2023-04-07T16:18:15.470Z,102055.19
2023-04-07T16:20:42.108Z,102046.38
2023-04-07T16:23:09.051Z,102053.78
2023-04-07T16:25:35.806Z,102050.50
2023-04-07T16:28:02.377Z,102058.16
2023-04-07T16:30:28.871Z,102062.41
2023-04-07T16:32:55.493Z,102060.25
2023-04-07T16:35:22.197Z,102064.34
2023-04-07T16:37:50.087Z,102064.06
2023-04-07T16:40:16.862Z,102073.69
2023-04-07T16:42:43.507Z,102072.53
2023-04-07T16:45:10.584Z,102072.25
2023-04-07T16:47:38.063Z,102078.19
2023-04-07T16:50:05.267Z,102078.56
2023-04-07T16:52:32.124Z,102079.97
2023-04-07T16:55:00.127Z,102073.16
2023-04-07T16:57:26.760Z,102087.88
2023-04-07T16:59:53.529Z,102082.78
2023-04-07T17:02:20.393Z,102085.88
2023-04-07T17:04:47.187Z,102087.97
2023-04-07T17:07:13.870Z,102085.56
2023-04-07T17:09:40.406Z,102095.75
2023-04-07T17:12:07.266Z,102094.19
2023-04-07T17:14:34.395Z,102094.44
2023-04-07T17:17:01.645Z,102092.00
2023-04-07T17:19:28.591Z,102100.22
2023-04-07T17:21:55.307Z,102107.59
2023-04-07T17:24:23.511Z,102118.59
2023-04-07T17:26:50.226Z,102120.53
2023-04-07T17:29:17.421Z,102113.47
2023-04-07T17:31:44.132Z,102124.38
2023-04-07T17:34:11.632Z,102122.94
2023-04-07T17:36:38.523Z,102123.88
2023-04-07T17:39:05.518Z,102125.03
2023-04-07T17:41:34.452Z,102125.13
2023-04-07T17:44:01.420Z,102131.50
2023-04-07T17:46:28.035Z,102132.50
2023-04-07T17:48:55.075Z,102138.00
2023-04-07T17:51:21.747Z,102139.81
2023-04-07T17:53:48.600Z,102146.19
2023-04-07T17:56:15.449Z,102148.19
2023-04-07T17:58:42.026Z,102148.28
2023-04-07T18:01:12.382Z,102143.06
2023-04-07T18:03:39.046Z,102143.06
2023-04-07T18:06:08.403Z,102151.38
2023-04-07T18:08:35.058Z,102153.22
2023-04-07T18:11:01.619Z,102153.34
2023-04-07T18:13:28.242Z,102165.81
2023-04-07T18:15:54.852Z,102167.75
2023-04-07T18:18:21.558Z,102169.59
2023-04-07T18:20:49.691Z,102171.59
2023-04-07T18:23:16.333Z,102168.03
2023-04-07T18:25:42.932Z,102180.59
2023-04-07T18:28:09.527Z,102176.09
2023-04-07T18:30:37.350Z,102181.19
2023-04-07T18:33:04.165Z,102181.69
2023-04-07T18:35:31.203Z,102187.13
2023-04-07T18:37:59.081Z,102181.81
2023-04-07T18:40:25.861Z,102191.53
2023-04-07T18:42:52.898Z,102195.00
2023-04-07T18:45:19.464Z,102194.94
2023-04-07T18:47:46.144Z,102205.63
2023-04-07T18:50:12.741Z,102204.72
2023-04-07T18:52:39.424Z,102212.81
2023-04-07T18:55:06.940Z,102209.31
2023-04-07T18:57:33.695Z,102210.31
2023-04-07T19:00:00.303Z,102213.38
2023-04-07T19:02:27.060Z,102223.72
2023-04-07T19:04:53.743Z,102221.75
2023-04-07T19:07:20.344Z,102232.53
2023-04-07T19:09:47.936Z,102233.50
2023-04-07T19:12:14.443Z,102230.97
2023-04-07T19:14:41.253Z,102235.66
2023-04-07T19:17:08.011Z,102236.72
2023-04-07T19:19:34.595Z,102243.38
2023-04-07T19:22:01.182Z,102236.56
2023-04-07T19:24:27.694Z,102238.66
2023-04-07T19:26:54.349Z,102240.75
2023-04-07T19:29:20.869Z,102238.47
2023-04-07T19:31:48.375Z,102242.16
2023-04-07T19:34:14.899Z,102240.59
2023-04-07T19:36:41.524Z,102245.38
2023-04-07T19:39:08.096Z,102243.84
2023-04-07T19:41:34.682Z,102257.56
2023-04-07T19:44:01.227Z,102261.25
2023-04-07T19:46:28.574Z,102257.81
2023-04-07T19:48:55.357Z,102252.56
2023-04-07T19:51:21.940Z,102259.78
2023-04-07T19:53:48.678Z,102261.59
2023-04-07T19:56:15.383Z,102265.28
2023-04-07T19:58:42.046Z,102261.91
2023-04-07T20:01:16.870Z,102266.44
2023-04-07T20:03:44.135Z,102258.34
2023-04-07T20:06:11.019Z,102264.69
2023-04-07T20:08:37.593Z,102270.09
2023-04-07T20:11:04.140Z,102271.06
2023-04-07T20:13:31.788Z,102272.06
2023-04-07T20:15:59.201Z,102273.91
2023-04-07T20:18:28.247Z,102268.38
2023-04-07T20:21:02.348Z,102269.81
2023-04-07T20:23:29.268Z,102279.19
2023-04-07T20:25:55.876Z,102277.94
2023-04-07T20:28:22.776Z,102274.16
2023-04-07T20:30:49.395Z,102274.16
2023-04-07T20:33:16.258Z,102282.22
2023-04-07T20:35:43.194Z,102281.53
2023-04-07T20:38:09.757Z,102289.84
2023-04-07T20:40:37.175Z,102281.34
2023-04-07T20:43:04.693Z,102295.03
2023-04-07T20:45:32.281Z,102296.28
2023-04-07T20:47:58.952Z,102292.16
2023-04-07T20:50:25.917Z,102292.41
2023-04-07T20:52:53.785Z,102297.34
2023-04-07T20:55:20.943Z,102295.06
2023-04-07T20:57:47.557Z,102298.69
2023-04-07T21:00:14.436Z,102294.16
2023-04-07T21:02:41.793Z,102302.25
2023-04-07T21:05:08.903Z,102300.53
2023-04-07T21:07:36.096Z,102299.53
2023-04-07T21:10:03.730Z,102300.44
2023-04-07T21:12:30.269Z,102295.91
2023-04-07T21:14:56.808Z,102297.75
2023-04-07T21:17:23.471Z,102309.34
2023-04-07T21:19:50.014Z,102305.66
2023-04-07T21:22:16.551Z,102304.69
2023-04-07T21:24:43.115Z,102311.91
2023-04-07T21:27:09.606Z,102308.22
2023-04-07T21:29:36.333Z,102304.44
2023-04-07T21:32:02.993Z,102302.47
2023-04-07T21:34:30.035Z,102304.44
2023-04-07T21:36:56.528Z,102304.56
2023-04-07T21:39:23.033Z,102302.00
2023-04-07T21:41:49.562Z,102302.25
2023-04-07T21:44:19.974Z,102307.91
2023-04-07T21:46:47.583Z,102311.69
2023-04-07T21:49:14.767Z,102310.09
2023-04-07T21:51:42.202Z,102310.41
2023-04-07T21:54:08.824Z,102302.56
2023-04-07T21:56:35.706Z,102317.13
2023-04-07T21:59:03.636Z,102316.53
2023-04-07T22:01:30.323Z,102323.03
2023-04-07T22:03:57.011Z,102322.25
2023-04-07T22:06:23.769Z,102326.06
2023-04-07T22:09:00.591Z,102323.75
2023-04-07T22:11:27.978Z,102323.03
2023-04-07T22:13:54.519Z,102330.50
2023-04-07T22:16:21.366Z,102330.75
2023-04-07T22:18:48.570Z,102331.03
2023-04-07T22:21:15.364Z,102336.63
2023-04-07T22:23:41.960Z,102339.56
2023-04-07T22:26:08.550Z,102345.19
2023-04-07T22:28:35.223Z,102339.09
2023-04-07T22:31:02.322Z,102344.72
2023-04-07T22:33:29.108Z,102344.13
2023-04-07T22:35:55.747Z,102345.22
2023-04-07T22:38:23.086Z,102345.34
2023-04-07T22:40:49.676Z,102347.44
2023-04-07T22:43:16.247Z,102341.34
2023-04-07T22:45:42.800Z,102347.81
2023-04-07T22:48:09.437Z,102348.91
2023-04-07T22:50:36.429Z,102354.41
2023-04-07T22:53:03.025Z,102351.09
2023-04-07T22:55:29.649Z,102356.63
2023-04-07T22:57:56.187Z,102355.03
2023-04-07T23:00:22.766Z,102358.69
2023-04-07T23:02:49.548Z,102363.31
2023-04-07T23:05:16.336Z,102359.91
2023-04-07T23:07:44.050Z,102364.53
2023-04-07T23:10:10.877Z,102368.34
2023-04-07T23:12:37.935Z,102365.91
2023-04-07T23:15:04.851Z,102366.03
2023-04-07T23:17:31.623Z,102371.50
2023-04-07T23:19:58.212Z,102375.31
2023-04-07T23:22:24.765Z,102370.03
2023-04-07T23:24:51.332Z,102372.84
2023-04-07T23:27:17.883Z,102373.09
2023-04-07T23:29:44.476Z,102371.41
2023-04-07T23:32:11.429Z,102373.47
2023-04-07T23:34:38.032Z,102381.63
2023-04-07T23:37:04.584Z,102371.97
2023-04-07T23:39:31.258Z,102380.16
2023-04-07T23:41:58.030Z,102382.22
2023-04-07T23:44:24.560Z,102388.66
2023-04-07T23:46:51.096Z,102383.53
2023-04-07T23:49:17.606Z,102377.44
2023-04-07T23:51:44.140Z,102384.75
2023-04-07T23:54:11.111Z,102389.41
2023-04-07T23:56:37.809Z,102386.94
2023-04-07T23:59:04.307Z,102380.81
